Time;durP1;ratioP1;P1;durP2;ratioP2;P2;SDS_P1;SDS_P2;PMS_P1;PMS_P2;Temp;Humidity;BMP_temperature;BMP_pressure;BME280_temperature;BME280_humidity;BME280_pressure;Samples;Min_cycle;Max_cycle;Signal;HPM_P1;HPM_P2
2022/05/24 00:01:33;;;;;;;18.13;14.52;;;13.00;99.90;;;;;;5046124;28;20121;-61
2022/05/24 00:03:59;;;;;;;16.08;12.15;;;13.00;99.90;;;;;;5039547;28;20454;-61
2022/05/24 00:06:31;;;;;;;17.98;14.05;;;13.00;99.90;;;;;;5033770;28;20122;-61
2022/05/24 00:08:57;;;;;;;13.95;9.30;;;12.90;99.90;;;;;;5038534;28;20110;-63
2022/05/24 00:11:23;;;;;;;16.13;12.55;;;12.80;99.90;;;;;;5035236;28;20057;-61
2022/05/24 00:13:49;;;;;;;13.77;8.73;;;12.90;99.90;;;;;;5046302;28;20379;-61
2022/05/24 00:16:14;;;;;;;12.63;9.35;;;13.00;99.90;;;;;;5022806;28;20043;-61
2022/05/24 00:18:40;;;;;;;13.10;10.45;;;12.90;99.90;;;;;;5039047;28;20084;-61
2022/05/24 00:21:07;;;;;;;12.30;9.95;;;12.80;99.90;;;;;;5038191;28;20057;-63
2022/05/24 00:23:34;;;;;;;10.82;8.77;;;12.80;99.90;;;;;;5036276;28;20132;-62
2022/05/24 00:26:03;;;;;;;13.32;9.65;;;12.80;99.90;;;;;;5030168;28;20076;-61
2022/05/24 00:28:31;;;;;;;11.52;9.93;;;12.80;99.90;;;;;;5039669;28;20053;-62
2022/05/24 00:30:58;;;;;;;14.45;11.10;;;12.80;99.90;;;;;;5035957;28;20540;-61
2022/05/24 00:33:25;;;;;;;14.73;12.85;;;12.80;99.90;;;;;;5045774;28;20044;-61
2022/05/24 00:35:52;;;;;;;16.88;11.68;;;12.90;99.90;;;;;;5016281;28;20072;-61
2022/05/24 00:38:27;;;;;;;16.58;12.15;;;12.70;99.90;;;;;;5038782;28;20146;-61
2022/05/24 00:41:22;;;;;;;16.10;12.57;;;12.90;99.90;;;;;;5034155;28;20049;-61
2022/05/24 00:44:04;;;;;;;16.25;13.55;;;12.70;99.90;;;;;;5044422;28;20040;-61
2022/05/24 00:46:47;;;;;;;18.90;12.82;;;12.80;99.90;;;;;;5040630;28;20349;-62
2022/05/24 00:49:25;;;;;;;15.52;12.68;;;12.70;99.90;;;;;;5039012;28;20051;-62
2022/05/24 00:52:00;;;;;;;16.45;14.77;;;12.80;99.90;;;;;;5038755;28;20471;-62
2022/05/24 00:54:26;;;;;;;15.02;13.18;;;12.70;99.90;;;;;;5035581;28;20125;-63
2022/05/24 00:57:29;;;;;;;18.98;14.20;;;12.80;99.90;;;;;;5019616;28;20124;-62
2022/05/24 01:00:19;;;;;;;15.00;13.35;;;12.90;99.90;;;;;;5036660;28;20524;-62
2022/05/24 01:02:45;;;;;;;13.75;12.13;;;12.80;99.90;;;;;;5034974;28;20121;-61
2022/05/24 01:05:24;;;;;;;16.27;12.55;;;12.80;99.90;;;;;;5044115;28;20121;-61
2022/05/24 01:07:50;;;;;;;14.88;12.38;;;12.80;99.90;;;;;;5041215;28;20081;-61
2022/05/24 01:10:22;;;;;;;16.83;13.43;;;12.70;99.90;;;;;;5037987;28;20076;-62
2022/05/24 01:13:06;;;;;;;16.30;13.07;;;12.60;99.90;;;;;;5035653;28;20045;-61
2022/05/24 01:15:33;;;;;;;15.15;12.93;;;12.50;99.90;;;;;;5036327;28;20033;-61
2022/05/24 01:17:59;;;;;;;14.95;12.95;;;12.60;99.90;;;;;;5035383;28;20051;-61
2022/05/24 01:20:26;;;;;;;16.92;13.32;;;12.60;99.90;;;;;;5019687;28;20049;-62
2022/05/24 01:23:06;;;;;;;16.80;12.52;;;12.50;99.90;;;;;;5039977;28;20103;-62
2022/05/24 01:25:38;;;;;;;19.42;13.80;;;12.50;99.90;;;;;;5038064;28;20072;-62
2022/05/24 01:28:17;;;;;;;13.13;10.05;;;12.50;99.90;;;;;;5035753;28;20399;-62
2022/05/24 01:30:43;;;;;;;;;;;12.50;99.90;;;;;;5036351;28;20173;-62
2022/05/24 01:36:11;;;;;;;11.75;10.55;;;12.50;99.90;;;;;;5053056;28;20052;-62
2022/05/24 01:38:47;;;;;;;14.07;9.77;;;12.50;99.90;;;;;;5036810;28;20053;-62
2022/05/24 01:41:20;;;;;;;12.07;8.30;;;12.60;99.90;;;;;;5022487;28;20368;-62
2022/05/24 01:43:49;;;;;;;10.80;7.40;;;12.70;99.90;;;;;;5033891;28;20049;-62
2022/05/24 01:46:18;;;;;;;10.32;7.32;;;12.70;99.90;;;;;;5034300;28;20083;-62
2022/05/24 01:48:54;;;;;;;9.55;6.55;;;12.70;99.90;;;;;;5025732;28;20048;-63
2022/05/24 01:51:25;;;;;;;7.10;6.40;;;12.50;99.90;;;;;;5041946;28;20046;-64
2022/05/24 01:53:55;;;;;;;8.07;4.93;;;12.50;99.90;;;;;;5039125;28;20046;-63
2022/05/24 01:56:36;;;;;;;10.30;7.30;;;12.30;99.90;;;;;;5035378;28;20052;-64
2022/05/24 01:59:04;;;;;;;11.98;6.93;;;12.30;99.90;;;;;;5031721;28;20412;-63
2022/05/24 02:01:33;;;;;;;8.65;6.85;;;12.30;99.90;;;;;;5034094;28;20045;-62
2022/05/24 02:04:01;;;;;;;10.63;7.18;;;12.20;99.90;;;;;;5044074;28;20061;-62
2022/05/24 02:06:29;;;;;;;12.02;8.07;;;12.10;99.90;;;;;;5017544;28;20155;-63
2022/05/24 02:08:56;;;;;;;11.30;7.97;;;12.10;99.90;;;;;;5036721;28;20037;-63
2022/05/24 02:11:29;;;;;;;10.65;7.70;;;12.00;99.90;;;;;;5025616;28;20056;-63
2022/05/24 02:14:06;;;;;;;11.38;7.72;;;11.90;99.90;;;;;;5038315;28;20044;-63
2022/05/24 02:16:34;;;;;;;12.32;8.95;;;11.90;99.90;;;;;;5034338;28;20491;-63
2022/05/24 02:19:01;;;;;;;10.88;8.40;;;11.90;99.90;;;;;;5014940;28;20061;-62
2022/05/24 02:21:27;;;;;;;12.38;9.70;;;11.70;99.90;;;;;;5036606;28;20076;-62
2022/05/24 02:23:53;;;;;;;14.15;10.02;;;11.70;99.90;;;;;;5034307;28;20079;-62
2022/05/24 02:26:22;;;;;;;13.52;9.15;;;11.60;99.90;;;;;;5033887;28;20044;-62
2022/05/24 02:28:53;;;;;;;14.77;10.77;;;11.70;99.90;;;;;;5034047;28;20049;-62
2022/05/24 02:31:21;;;;;;;14.05;11.07;;;11.70;99.90;;;;;;5022951;28;20407;-63
2022/05/24 02:33:47;;;;;;;14.90;10.35;;;11.60;99.90;;;;;;5031764;28;20068;-63
2022/05/24 02:36:14;;;;;;;15.35;11.55;;;11.70;99.90;;;;;;5017991;28;20044;-62
2022/05/24 02:38:41;;;;;;;15.80;11.48;;;11.70;99.90;;;;;;5039378;28;20038;-62
2022/05/24 02:43:51;;;;;;;17.15;12.88;;;11.60;99.90;;;;;;5021303;28;20051;-63
2022/05/24 02:46:18;;;;;;;18.50;14.13;;;11.60;99.90;;;;;;5015930;28;20355;-62
2022/05/24 02:48:43;;;;;;;18.10;14.18;;;11.60;99.90;;;;;;5036928;28;20401;-62
2022/05/24 02:51:12;;;;;;;23.83;15.90;;;11.60;99.90;;;;;;5034921;28;20081;-62
2022/05/24 02:53:39;;;;;;;18.77;14.93;;;11.60;99.90;;;;;;5047459;28;20146;-63
2022/05/24 02:56:05;;;;;;;20.63;15.93;;;11.70;99.90;;;;;;5029922;28;20037;-62
2022/05/24 02:58:32;;;;;;;17.50;15.02;;;11.70;99.90;;;;;;5027440;28;20124;-62
2022/05/24 03:00:58;;;;;;;21.95;17.10;;;11.70;99.90;;;;;;5040383;28;20048;-63
2022/05/24 03:03:23;;;;;;;22.40;16.73;;;11.90;99.90;;;;;;5033903;28;20402;-62
2022/05/24 03:05:49;;;;;;;22.08;17.85;;;11.90;99.90;;;;;;5035571;28;20488;-62
2022/05/24 03:10:59;;;;;;;24.83;18.23;;;11.90;99.90;;;;;;5037311;28;20115;-63
2022/05/24 03:16:12;;;;;;;21.92;17.60;;;12.00;99.90;;;;;;5038213;28;20045;-63
2022/05/24 03:18:39;;;;;;;22.50;18.23;;;12.00;99.90;;;;;;5038421;28;20502;-62
2022/05/24 03:21:06;;;;;;;23.45;18.05;;;12.00;99.90;;;;;;5037204;28;20063;-63
2022/05/24 03:23:33;;;;;;;21.77;17.52;;;12.20;99.90;;;;;;5033038;28;20049;-63
2022/05/24 03:25:59;;;;;;;19.23;16.88;;;12.20;99.90;;;;;;5032884;28;20048;-63
2022/05/24 03:28:25;;;;;;;22.65;17.10;;;12.30;99.90;;;;;;5024493;28;20045;-63
2022/05/24 03:30:51;;;;;;;24.10;18.25;;;12.10;99.90;;;;;;5036391;28;20044;-63
2022/05/24 03:33:17;;;;;;;21.80;17.65;;;12.30;99.90;;;;;;5028416;28;20398;-63
2022/05/24 03:35:42;;;;;;;21.83;19.17;;;12.30;99.90;;;;;;5035540;28;20133;-62
2022/05/24 03:38:08;;;;;;;22.38;19.52;;;12.20;99.90;;;;;;5036066;28;20087;-63
2022/05/24 03:40:35;;;;;;;21.85;18.05;;;12.30;99.90;;;;;;5047246;28;20445;-62
2022/05/24 03:43:01;;;;;;;22.58;17.20;;;12.30;99.90;;;;;;5013574;28;20040;-62
2022/05/24 03:45:28;;;;;;;20.38;16.55;;;12.40;99.90;;;;;;5020765;28;20106;-62
2022/05/24 03:47:54;;;;;;;22.33;18.10;;;12.40;99.90;;;;;;5044130;28;20207;-62
2022/05/24 03:50:20;;;;;;;22.83;17.27;;;12.40;99.90;;;;;;5039428;28;20045;-62
2022/05/24 03:52:46;;;;;;;24.13;19.58;;;12.40;99.90;;;;;;5021563;28;20029;-62
2022/05/24 03:55:12;;;;;;;23.40;19.95;;;12.50;99.90;;;;;;5036688;28;20033;-62
2022/05/24 04:00:24;;;;;;;25.70;20.38;;;12.50;99.90;;;;;;5037814;28;20061;-61
2022/05/24 04:02:50;;;;;;;31.60;22.73;;;12.50;99.90;;;;;;5048513;28;20049;-62
2022/05/24 04:05:16;;;;;;;31.95;23.85;;;12.70;99.90;;;;;;5044855;28;20099;-62
2022/05/24 04:07:41;;;;;;;26.63;21.90;;;12.70;99.90;;;;;;5029833;28;20048;-62
2022/05/24 04:10:10;;;;;;;33.25;24.88;;;12.70;99.90;;;;;;5041365;28;20048;-63
2022/05/24 04:12:36;;;;;;;35.75;27.40;;;12.80;99.90;;;;;;5022241;28;20041;-61
2022/05/24 04:15:02;;;;;;;36.20;27.30;;;12.90;99.90;;;;;;5037792;28;20067;-61
2022/05/24 04:17:28;;;;;;;34.67;28.50;;;12.80;99.90;;;;;;5024732;28;20387;-61
2022/05/24 04:19:54;;;;;;;40.00;29.05;;;12.80;99.90;;;;;;5014727;28;20064;-61
2022/05/24 04:22:20;;;;;;;40.50;29.90;;;13.00;99.90;;;;;;5020363;28;20539;-61
2022/05/24 04:24:46;;;;;;;37.83;29.92;;;12.90;99.90;;;;;;5040219;28;20040;-61
2022/05/24 04:27:12;;;;;;;41.83;32.05;;;12.90;99.90;;;;;;5044442;28;20043;-61
2022/05/24 04:29:40;;;;;;;43.33;32.15;;;13.00;99.90;;;;;;5035120;28;20051;-61
2022/05/24 04:32:07;;;;;;;45.55;35.30;;;13.00;99.90;;;;;;5039968;28;20048;-62
2022/05/24 04:34:32;;;;;;;52.63;36.70;;;13.10;99.90;;;;;;5036649;28;20087;-61
2022/05/24 04:36:58;;;;;;;51.13;38.17;;;13.00;99.90;;;;;;5035102;28;20476;-61
2022/05/24 04:39:24;;;;;;;54.30;38.38;;;13.20;99.90;;;;;;5033717;28;20060;-61
2022/05/24 04:44:34;;;;;;;55.95;40.65;;;13.10;99.90;;;;;;5021127;28;20526;-61
2022/05/24 04:47:09;;;;;;;54.45;39.22;;;13.20;99.90;;;;;;5027640;28;20044;-61
2022/05/24 04:49:46;;;;;;;50.33;37.58;;;13.30;99.90;;;;;;5012916;28;20124;-62
2022/05/24 04:52:13;;;;;;;56.53;42.20;;;13.20;99.90;;;;;;5041057;28;20123;-61
2022/05/24 04:54:40;;;;;;;57.50;42.45;;;13.30;99.90;;;;;;5036376;28;20033;-62
2022/05/24 04:57:07;;;;;;;58.45;42.00;;;13.20;99.90;;;;;;5031027;28;20076;-62
2022/05/24 04:59:33;;;;;;;52.88;40.25;;;13.30;99.90;;;;;;5034480;28;20060;-61
2022/05/24 05:01:59;;;;;;;53.55;40.40;;;13.40;99.90;;;;;;5030587;28;20073;-61
2022/05/24 05:04:25;;;;;;;52.17;39.78;;;13.40;99.90;;;;;;5030347;28;20152;-63
2022/05/24 05:06:51;;;;;;;55.60;40.30;;;13.60;99.90;;;;;;5036390;28;20045;-61
2022/05/24 05:09:19;;;;;;;45.65;35.55;;;13.40;99.90;;;;;;5039868;28;20140;-61
2022/05/24 05:11:45;;;;;;;50.85;39.15;;;13.60;99.90;;;;;;5035777;28;20116;-61
2022/05/24 05:14:11;;;;;;;39.45;31.98;;;13.70;99.90;;;;;;5035781;28;20045;-62
2022/05/24 05:16:38;;;;;;;35.90;28.98;;;13.70;99.90;;;;;;5034957;28;20044;-61
2022/05/24 05:19:05;;;;;;;30.92;27.58;;;13.80;99.90;;;;;;5038022;28;20136;-62
2022/05/24 05:21:33;;;;;;;36.08;28.48;;;13.80;99.90;;;;;;5031972;28;20090;-61
2022/05/24 05:24:00;;;;;;;31.70;26.10;;;13.90;99.90;;;;;;5035449;28;20049;-62
2022/05/24 05:26:26;;;;;;;38.25;28.95;;;13.80;99.90;;;;;;5038923;28;20050;-61
2022/05/24 05:28:52;;;;;;;31.35;25.60;;;14.00;99.90;;;;;;5034315;28;20037;-61
2022/05/24 05:31:23;;;;;;;32.60;28.02;;;14.10;99.90;;;;;;5022399;28;20108;-62
2022/05/24 05:33:50;;;;;;;31.08;25.65;;;14.00;99.90;;;;;;5020323;28;20041;-62
2022/05/24 05:36:17;;;;;;;26.58;22.50;;;14.10;99.90;;;;;;5019672;28;20036;-62
2022/05/24 05:38:46;;;;;;;26.85;23.80;;;14.10;99.90;;;;;;5036209;28;20045;-62
2022/05/24 05:41:24;;;;;;;25.20;21.40;;;14.00;99.90;;;;;;5038637;28;20269;-63
2022/05/24 05:43:50;;;;;;;25.13;19.70;;;14.20;99.90;;;;;;5016160;28;20061;-61
2022/05/24 05:46:18;;;;;;;27.38;21.75;;;14.10;99.90;;;;;;5018532;28;20497;-62
2022/05/24 05:48:44;;;;;;;23.42;20.45;;;14.10;99.90;;;;;;5042953;28;20063;-62
2022/05/24 05:51:12;;;;;;;26.60;20.23;;;14.00;99.90;;;;;;5039249;28;20513;-62
2022/05/24 05:53:38;;;;;;;24.98;19.85;;;14.10;99.90;;;;;;5034353;28;20037;-62
2022/05/24 05:56:18;;;;;;;25.73;19.08;;;14.00;99.90;;;;;;5038445;28;20036;-62
2022/05/24 05:58:44;;;;;;;23.65;19.30;;;14.10;99.90;;;;;;5052177;28;20132;-63
2022/05/24 06:01:19;;;;;;;21.05;18.08;;;14.10;99.90;;;;;;5032111;28;20124;-62
2022/05/24 06:03:45;;;;;;;21.30;17.17;;;14.00;99.90;;;;;;5042156;28;20170;-62
2022/05/24 06:06:22;;;;;;;22.60;17.42;;;14.20;99.90;;;;;;5034632;28;20044;-62
2022/05/24 06:08:47;;;;;;;;;;;14.10;99.90;;;;;;5036579;28;20853;-63
2022/05/24 06:11:13;;;;;;;21.60;15.90;;;14.00;99.90;;;;;;5032286;28;19969;-62
2022/05/24 06:13:39;;;;;;;22.45;18.60;;;14.10;99.90;;;;;;5016276;28;20064;-63
2022/05/24 06:16:05;;;;;;;19.50;15.50;;;14.10;99.90;;;;;;5033278;28;20107;-63
2022/05/24 06:18:30;;;;;;;18.02;15.93;;;14.20;99.90;;;;;;5036159;28;20440;-62
2022/05/24 06:20:56;;;;;;;20.25;16.08;;;14.20;99.90;;;;;;5034020;28;20464;-63
2022/05/24 06:23:22;;;;;;;23.23;15.60;;;14.10;99.90;;;;;;5035619;28;20045;-62
2022/05/24 06:25:47;;;;;;;20.73;16.02;;;14.10;99.90;;;;;;5043227;28;20071;-62
2022/05/24 06:28:15;;;;;;;21.55;17.55;;;14.10;99.90;;;;;;5051392;28;20095;-61
2022/05/24 06:30:41;;;;;;;23.02;16.98;;;14.10;99.90;;;;;;5025707;28;20044;-62
2022/05/24 06:33:07;;;;;;;19.65;16.48;;;14.10;99.90;;;;;;5028524;28;20573;-63
2022/05/24 06:35:34;;;;;;;23.13;17.75;;;14.00;99.90;;;;;;5052449;28;20069;-62
2022/05/24 06:38:06;;;;;;;23.08;17.48;;;13.90;99.90;;;;;;5038905;28;20059;-62
2022/05/24 06:40:32;;;;;;;22.50;19.05;;;13.80;99.90;;;;;;5048213;28;20503;-63
2022/05/24 06:42:58;;;;;;;26.65;19.63;;;13.80;99.90;;;;;;5037347;28;20075;-61
2022/05/24 06:45:24;;;;;;;24.75;20.02;;;13.80;99.90;;;;;;5006741;28;20040;-62
2022/05/24 06:47:49;;;;;;;26.63;20.63;;;13.80;99.90;;;;;;5021227;28;20115;-62
2022/05/24 06:50:16;;;;;;;26.17;19.83;;;13.80;99.90;;;;;;5030729;28;20042;-61
2022/05/24 06:52:42;;;;;;;25.83;21.33;;;13.90;99.90;;;;;;5042473;28;20047;-62
2022/05/24 06:55:11;;;;;;;30.73;23.15;;;13.80;99.90;;;;;;5044895;28;20041;-61
2022/05/24 06:57:37;;;;;;;25.75;21.85;;;13.90;99.90;;;;;;5050034;28;20049;-62
2022/05/24 07:02:58;;;;;;;26.95;20.17;;;13.70;99.90;;;;;;5064681;28;20052;-62
2022/05/24 07:05:24;;;;;;;29.30;21.98;;;13.60;99.90;;;;;;5044482;28;20448;-62
2022/05/24 07:07:49;;;;;;;31.02;20.55;;;13.70;99.90;;;;;;5049858;28;20129;-62
2022/05/24 07:10:16;;;;;;;28.48;21.85;;;13.60;99.90;;;;;;5041774;28;20041;-62
2022/05/24 07:12:42;;;;;;;32.03;24.08;;;13.40;99.90;;;;;;5039215;28;20084;-62
2022/05/24 07:15:08;;;;;;;28.98;22.75;;;13.40;99.90;;;;;;5039012;28;20042;-62
2022/05/24 07:17:34;;;;;;;28.02;21.58;;;13.30;99.90;;;;;;5034495;28;20033;-62
2022/05/24 07:20:00;;;;;;;28.30;20.45;;;13.20;99.90;;;;;;5040318;28;20041;-61
2022/05/24 07:22:26;;;;;;;30.42;22.27;;;13.10;99.90;;;;;;5050622;28;20041;-61
2022/05/24 07:24:52;;;;;;;28.70;20.23;;;13.20;99.90;;;;;;5031952;28;20537;-61
2022/05/24 07:27:20;;;;;;;38.83;24.65;;;13.20;99.90;;;;;;5056540;28;20547;-61
2022/05/24 07:29:47;;;;;;;29.15;21.13;;;13.10;99.90;;;;;;5040552;28;20041;-61
2022/05/24 07:32:13;;;;;;;27.33;20.85;;;13.20;99.90;;;;;;5029032;28;20487;-61
2022/05/24 07:34:39;;;;;;;33.78;23.48;;;13.10;99.90;;;;;;5018190;28;20103;-62
2022/05/24 07:37:07;;;;;;;27.95;20.52;;;13.10;99.90;;;;;;5005927;28;20059;-62
2022/05/24 07:39:33;;;;;;;26.67;20.45;;;13.00;99.90;;;;;;5041754;28;20069;-62
2022/05/24 07:47:33;;;;;;;29.75;24.35;;;13.00;99.90;;;;;;5036763;28;20201;-62
2022/05/24 07:49:59;;;;;;;31.30;24.08;;;13.20;99.90;;;;;;5054870;28;20049;-62
2022/05/24 07:52:25;;;;;;;35.97;26.38;;;13.30;99.90;;;;;;5046991;28;20112;-63
2022/05/24 07:54:52;;;;;;;32.97;24.55;;;13.40;99.90;;;;;;5040977;28;20046;-61
2022/05/24 07:57:19;;;;;;;37.60;26.45;;;13.60;99.90;;;;;;5039438;28;20052;-63
2022/05/24 07:59:47;;;;;;;22.20;17.98;;;13.70;99.90;;;;;;5031562;28;20037;-63
2022/05/24 08:02:18;;;;;;;22.10;15.75;;;13.90;99.90;;;;;;5030060;28;20088;-62
2022/05/24 08:04:45;;;;;;;20.92;14.25;;;13.90;99.90;;;;;;5053518;28;20387;-62
2022/05/24 08:07:11;;;;;;;22.48;15.98;;;13.90;99.90;;;;;;5043853;28;20052;-62
2022/05/24 08:09:37;;;;;;;19.40;14.35;;;13.80;99.90;;;;;;5043814;28;20507;-62
2022/05/24 08:12:03;;;;;;;25.88;16.95;;;13.90;99.90;;;;;;5023352;28;20036;-62
2022/05/24 08:14:29;;;;;;;24.88;17.00;;;13.90;99.90;;;;;;5041483;28;20041;-62
2022/05/24 08:16:55;;;;;;;29.08;19.77;;;13.80;99.90;;;;;;5040405;28;20507;-62
2022/05/24 08:19:21;;;;;;;22.55;15.95;;;13.80;99.90;;;;;;5030213;28;20069;-63
2022/05/24 08:21:47;;;;;;;19.75;15.18;;;13.90;99.90;;;;;;5041506;28;20045;-62
2022/05/24 08:24:13;;;;;;;24.65;19.00;;;13.90;99.90;;;;;;5037361;28;20048;-61
2022/05/24 08:26:39;;;;;;;18.75;12.77;;;13.90;99.90;;;;;;5013850;28;20429;-61
2022/05/24 08:29:05;;;;;;;13.82;11.27;;;14.00;99.90;;;;;;5031048;28;20120;-62
2022/05/24 08:31:31;;;;;;;13.25;9.90;;;13.90;99.90;;;;;;5037405;28;20080;-63
2022/05/24 08:33:56;;;;;;;14.52;10.25;;;13.90;99.90;;;;;;5039954;28;20065;-62
2022/05/24 08:36:22;;;;;;;14.57;10.90;;;13.90;99.90;;;;;;5030601;28;20120;-63
2022/05/24 08:38:48;;;;;;;18.88;13.20;;;13.70;99.90;;;;;;5056496;28;20111;-63
2022/05/24 08:41:50;;;;;;;20.25;14.90;;;13.80;99.90;;;;;;5039870;28;20041;-63
2022/05/24 08:50:16;;;;;;;15.60;12.77;;;13.50;99.90;;;;;;5056381;28;20396;-63
2022/05/24 08:53:06;;;;;;;14.52;10.10;;;13.40;99.90;;;;;;5019217;28;20729;-63
2022/05/24 08:55:33;;;;;;;17.02;10.02;;;13.40;99.90;;;;;;5047513;28;20038;-62
2022/05/24 08:58:00;;;;;;;16.42;10.70;;;13.60;99.90;;;;;;5060620;28;20037;-62
2022/05/24 09:00:30;;;;;;;10.90;7.65;;;13.60;99.90;;;;;;5045765;28;20083;-64
2022/05/24 09:02:56;;;;;;;13.38;8.82;;;13.60;99.90;;;;;;5034770;28;20060;-63
2022/05/24 09:05:25;;;;;;;9.73;6.82;;;13.50;99.90;;;;;;5035417;28;20057;-62
2022/05/24 09:08:21;;;;;;;11.35;6.53;;;13.50;99.90;;;;;;5058719;28;20053;-61
2022/05/24 09:11:03;;;;;;;9.77;7.20;;;13.40;99.90;;;;;;5035307;28;20042;-62
2022/05/24 09:13:51;;;;;;;10.75;7.18;;;13.40;99.90;;;;;;5034184;28;20114;-61
2022/05/24 09:16:17;;;;;;;11.05;6.85;;;13.50;99.90;;;;;;5047513;28;20041;-61
2022/05/24 09:19:04;;;;;;;8.73;6.15;;;13.80;99.90;;;;;;5002207;28;20063;-62
2022/05/24 09:21:32;;;;;;;11.75;7.20;;;14.20;99.90;;;;;;5044174;28;20507;-61
2022/05/24 09:24:22;;;;;;;12.38;7.28;;;14.40;99.90;;;;;;5038748;28;20044;-62
2022/05/24 09:27:25;;;;;;;11.18;6.75;;;14.50;99.90;;;;;;5037913;28;20072;-62
2022/05/24 09:30:04;;;;;;;15.02;9.25;;;14.50;99.90;;;;;;5010502;28;20068;-61
2022/05/24 09:32:34;;;;;;;13.02;8.43;;;14.60;99.90;;;;;;5050736;28;20444;-61
2022/05/24 09:35:10;;;;;;;14.90;10.13;;;14.60;99.90;;;;;;5050901;28;20423;-61
2022/05/24 09:37:38;;;;;;;13.57;9.00;;;15.10;99.90;;;;;;5029694;28;20072;-62
2022/05/24 09:40:17;;;;;;;10.50;6.82;;;15.30;99.90;;;;;;5044610;28;20296;-61
2022/05/24 09:42:43;;;;;;;9.23;5.88;;;15.80;99.90;;;;;;5038661;28;20091;-62
2022/05/24 09:45:12;;;;;;;11.82;6.90;;;16.00;99.90;;;;;;5012996;28;20400;-62
2022/05/24 09:47:49;;;;;;;9.75;6.20;;;15.90;99.90;;;;;;5045569;28;20179;-63
2022/05/24 09:50:21;;;;;;;10.45;4.53;;;15.70;99.90;;;;;;5033452;28;20085;-62
2022/05/24 09:53:02;;;;;;;7.93;4.93;;;15.60;99.90;;;;;;5050595;28;20116;-62
2022/05/24 09:55:54;;;;;;;10.57;6.72;;;15.20;99.90;;;;;;5021052;28;20369;-61
2022/05/24 09:58:30;;;;;;;12.45;8.88;;;14.90;99.90;;;;;;5038520;28;20034;-63
2022/05/24 10:01:02;;;;;;;19.67;10.35;;;14.20;99.90;;;;;;5054867;28;20530;-63
2022/05/24 10:03:35;;;;;;;12.60;9.10;;;13.60;99.90;;;;;;5035050;28;20083;-63
2022/05/24 10:06:04;;;;;;;;;;;13.20;99.90;;;;;;5028399;28;20095;-62
2022/05/24 10:08:57;;;;;;;9.07;6.47;;;12.90;99.90;;;;;;5037303;28;20002;-63
2022/05/24 10:11:43;;;;;;;6.38;4.55;;;12.90;99.90;;;;;;5019638;28;20052;-63
2022/05/24 10:14:27;;;;;;;6.75;5.35;;;12.90;99.90;;;;;;5035842;28;20049;-62
2022/05/24 10:17:27;;;;;;;6.32;3.47;;;12.80;99.90;;;;;;5041921;28;20392;-62
2022/05/24 10:20:20;;;;;;;5.55;3.50;;;12.80;99.90;;;;;;5036891;28;20037;-62
2022/05/24 10:23:00;;;;;;;5.13;2.87;;;13.10;99.90;;;;;;5038150;28;20064;-62
2022/05/24 10:25:39;;;;;;;3.35;2.25;;;13.20;99.90;;;;;;5030764;28;20048;-62
2022/05/24 10:28:04;;;;;;;3.35;2.33;;;13.40;99.90;;;;;;5018747;28;20076;-61
2022/05/24 10:31:05;;;;;;;3.25;2.30;;;13.30;99.90;;;;;;5052414;28;20040;-62
2022/05/24 10:40:20;;;;;;;7.53;3.40;;;13.80;99.90;;;;;;5041376;28;20174;-63
2022/05/24 10:43:04;;;;;;;5.97;3.28;;;14.10;99.90;;;;;;5025664;28;20037;-62
2022/05/24 10:45:50;;;;;;;4.38;2.53;;;14.50;99.90;;;;;;5037845;28;20519;-62
2022/05/24 10:48:34;;;;;;;3.92;2.33;;;14.40;99.90;;;;;;5054336;28;20041;-62
2022/05/24 10:51:30;;;;;;;3.95;1.85;;;14.80;99.90;;;;;;5033725;28;20041;-62
2022/05/24 10:54:01;;;;;;;3.42;1.90;;;15.60;99.90;;;;;;5029477;28;20057;-62
2022/05/24 10:56:43;;;;;;;2.47;1.52;;;16.30;99.90;;;;;;5034017;28;20041;-62
2022/05/24 10:59:40;;;;;;;2.45;1.27;;;16.30;99.90;;;;;;5049774;28;20087;-62
2022/05/24 11:02:21;;;;;;;2.65;1.38;;;16.20;99.90;;;;;;5043731;28;20486;-62
2022/05/24 11:05:09;;;;;;;3.55;0.80;;;16.80;99.90;;;;;;5044573;28;20122;-62
2022/05/24 11:07:36;;;;;;;3.42;0.93;;;16.50;99.90;;;;;;5045367;28;20033;-63
2022/05/24 11:10:05;;;;;;;2.00;0.88;;;16.00;99.90;;;;;;5040178;28;20048;-62
2022/05/24 11:12:38;;;;;;;3.40;0.80;;;15.60;99.90;;;;;;5026641;28;20051;-62
2022/05/24 11:15:32;;;;;;;3.40;0.95;;;15.10;99.90;;;;;;5035202;28;20513;-62
2022/05/24 11:18:17;;;;;;;4.15;1.42;;;14.60;99.90;;;;;;5039755;28;20040;-62
2022/05/24 11:20:56;;;;;;;4.20;1.80;;;14.20;99.90;;;;;;5030385;28;20045;-62
2022/05/24 11:23:31;;;;;;;6.47;1.88;;;13.70;99.90;;;;;;5030485;28;20517;-62
2022/05/24 11:26:12;;;;;;;5.90;2.63;;;13.50;99.90;;;;;;5039667;28;20056;-63
2022/05/24 11:28:47;;;;;;;5.03;3.38;;;13.50;99.90;;;;;;5035841;28;20051;-61
2022/05/24 11:31:44;;;;;;;6.43;2.50;;;13.50;99.90;;;;;;5036356;28;20037;-62
2022/05/24 11:34:48;;;;;;;5.25;1.80;;;13.70;99.90;;;;;;5040953;28;20136;-62
2022/05/24 11:37:27;;;;;;;3.17;1.05;;;13.90;99.90;;;;;;4943311;28;20050;-62
2022/05/24 11:39:54;;;;;;;4.57;0.82;;;14.80;99.90;;;;;;5026952;28;20053;-62
2022/05/24 11:42:25;;;;;;;1.48;0.50;;;15.40;99.90;;;;;;5036541;28;20049;-62
2022/05/24 11:44:57;;;;;;;2.05;0.55;;;15.40;99.90;;;;;;5034482;28;20040;-62
2022/05/24 11:47:34;;;;;;;2.05;0.60;;;15.60;99.90;;;;;;5038337;28;20045;-62
2022/05/24 11:50:10;;;;;;;3.00;0.70;;;15.30;99.90;;;;;;5034339;28;20541;-62
2022/05/24 11:53:04;;;;;;;1.85;0.60;;;15.00;99.90;;;;;;5030732;28;20049;-63
2022/05/24 11:55:41;;;;;;;1.92;0.50;;;14.90;99.90;;;;;;5027071;28;20064;-62
2022/05/24 11:58:19;;;;;;;1.42;0.70;;;15.40;99.90;;;;;;5036187;28;20045;-62
2022/05/24 12:00:59;;;;;;;3.63;1.20;;;15.40;99.90;;;;;;5026926;28;20049;-61
2022/05/24 12:09:14;;;;;;;3.97;1.30;;;14.30;99.90;;;;;;5033991;28;20098;-61
2022/05/24 12:11:40;;;;;;;3.50;1.13;;;14.30;99.90;;;;;;5044457;28;20168;-62
2022/05/24 12:14:17;;;;;;;1.75;0.65;;;14.80;99.90;;;;;;5033431;28;20151;-62
2022/05/24 12:17:06;;;;;;;1.13;0.52;;;15.60;99.90;;;;;;5049949;28;20121;-62
2022/05/24 12:19:38;;;;;;;1.15;0.85;;;15.50;99.90;;;;;;5037064;28;20072;-62
2022/05/24 12:22:12;;;;;;;5.07;1.08;;;16.10;99.90;;;;;;5054911;28;20419;-62
2022/05/24 12:24:41;;;;;;;2.90;0.90;;;16.70;99.90;;;;;;5018433;28;20025;-62
2022/05/24 12:27:19;;;;;;;2.35;0.77;;;17.20;99.90;;;;;;5030784;28;20436;-62
2022/05/24 12:29:49;;;;;;;3.17;0.85;;;17.30;99.90;;;;;;5046575;28;20095;-62
2022/05/24 12:32:17;;;;;;;3.80;0.90;;;16.80;99.90;;;;;;5030282;28;20068;-62
2022/05/24 12:34:43;;;;;;;1.25;0.30;;;16.20;99.90;;;;;;5036866;28;20068;-61
2022/05/24 12:37:27;;;;;;;1.80;0.43;;;15.60;99.90;;;;;;5028933;28;20152;-62
2022/05/24 12:40:19;;;;;;;1.67;0.35;;;14.90;99.90;;;;;;5034711;28;20056;-61
2022/05/24 12:42:52;;;;;;;5.53;0.40;;;14.50;99.90;;;;;;5039705;28;20522;-63
2022/05/24 12:45:43;;;;;;;2.33;0.50;;;14.20;99.90;;;;;;5031364;28;20034;-61
2022/05/24 12:48:17;;;;;;;2.78;0.63;;;14.50;99.90;;;;;;5017415;28;20087;-62
2022/05/24 12:50:44;;;;;;;2.70;0.60;;;15.10;99.90;;;;;;5039276;28;20041;-61
2022/05/24 12:53:12;;;;;;;2.90;0.68;;;15.10;99.90;;;;;;5040267;28;20037;-62
2022/05/24 12:55:55;;;;;;;3.05;0.57;;;15.20;99.90;;;;;;5038065;28;20037;-61
2022/05/24 12:58:35;;;;;;;;;;;15.30;99.90;;;;;;5028813;28;20083;-61
2022/05/24 13:01:23;;;;;;;6.07;1.15;;;15.60;99.90;;;;;;5038338;28;19970;-61
2022/05/24 13:04:06;;;;;;;3.92;0.70;;;16.10;99.90;;;;;;5000091;28;1140142;-62
2022/05/24 13:06:34;;;;;;;3.42;0.60;;;16.70;99.90;;;;;;5035668;28;20214;-61
2022/05/24 13:09:18;;;;;;;4.15;0.55;;;16.30;99.90;;;;;;5037673;28;20064;-62
2022/05/24 13:11:50;;;;;;;4.72;0.65;;;15.70;99.90;;;;;;5033549;28;20041;-62
2022/05/24 13:14:40;;;;;;;1.73;0.40;;;15.30;99.90;;;;;;5042897;28;20041;-61
2022/05/24 13:17:07;;;;;;;2.38;0.55;;;14.80;99.90;;;;;;5029096;28;20068;-61
2022/05/24 13:19:50;;;;;;;4.57;0.50;;;14.80;99.90;;;;;;5029977;28;20041;-61
2022/05/24 13:22:18;;;;;;;3.72;0.80;;;15.10;99.90;;;;;;4998771;28;20033;-61
2022/05/24 13:24:51;;;;;;;3.95;0.70;;;15.90;99.90;;;;;;5022101;28;20139;-62
2022/05/24 13:27:17;;;;;;;1.98;0.40;;;16.90;99.90;;;;;;5059213;28;20033;-62
2022/05/24 13:35:25;;;;;;;2.17;0.40;;;17.30;99.90;;;;;;5038592;28;20045;-61
2022/05/24 13:37:55;;;;;;;4.80;0.52;;;16.90;99.90;;;;;;5053282;28;20055;-61
2022/05/24 13:40:54;;;;;;;4.03;0.40;;;16.30;99.90;;;;;;5049136;28;20590;-61
2022/05/24 13:43:50;;;;;;;3.10;0.40;;;15.80;99.90;;;;;;5038621;28;20507;-61
2022/05/24 13:46:21;;;;;;;3.45;0.60;;;15.40;99.90;;;;;;5050874;28;20073;-60
2022/05/24 13:49:00;;;;;;;6.43;0.80;;;15.30;99.90;;;;;;5047523;28;20053;-61